createdAt,value
2022-12-13T00:00:28.238Z,92.10
2022-12-13T00:02:55.065Z,92.10
2022-12-13T00:05:21.893Z,92.10
2022-12-13T00:07:48.734Z,92.20
2022-12-13T00:10:15.670Z,92.30
2022-12-13T00:12:42.526Z,92.30
2022-12-13T00:15:09.593Z,92.20
2022-12-13T00:17:36.389Z,92.10
2022-12-13T00:20:03.552Z,92.20
2022-12-13T00:22:30.392Z,92.20
2022-12-13T00:24:57.368Z,92.20
2022-12-13T00:27:24.227Z,92.50
2022-12-13T00:29:51.075Z,92.70
2022-12-13T00:32:17.928Z,92.60
2022-12-13T00:34:44.843Z,92.70
2022-12-13T00:37:11.706Z,92.50
2022-12-13T00:39:38.939Z,92.50
2022-12-13T00:42:05.920Z,92.60
2022-12-13T00:44:32.823Z,92.60
2022-12-13T00:46:59.648Z,92.50
2022-12-13T00:49:26.520Z,92.60
2022-12-13T00:51:53.369Z,92.50
2022-12-13T00:54:20.283Z,92.60
2022-12-13T00:56:47.139Z,92.60
2022-12-13T00:59:14.476Z,92.60
2022-12-13T01:04:46.033Z,92.40
2022-12-13T01:07:12.891Z,92.40
2022-12-13T01:09:40.111Z,92.40
2022-12-13T01:12:07.186Z,92.40
2022-12-13T01:14:37.293Z,92.40
2022-12-13T01:17:04.217Z,92.40
2022-12-13T01:19:31.378Z,92.70
2022-12-13T01:21:59.904Z,92.80
2022-12-13T01:24:26.969Z,92.80
2022-12-13T01:26:57.233Z,92.90
2022-12-13T01:29:24.412Z,93.00
2022-12-13T01:31:53.142Z,93.00
2022-12-13T01:34:20.290Z,92.90
2022-12-13T01:40:08.864Z,92.70
2022-12-13T01:42:43.765Z,92.50
2022-12-13T01:45:22.958Z,92.70
2022-12-13T01:47:51.798Z,92.40
2022-12-13T01:53:23.039Z,92.50
2022-12-13T01:55:50.678Z,92.60
2022-12-13T01:58:17.465Z,92.50
2022-12-13T02:00:44.367Z,92.60
2022-12-13T02:03:21.126Z,92.60
2022-12-13T02:05:56.587Z,92.60
2022-12-13T02:08:27.805Z,92.70
2022-12-13T02:10:54.673Z,92.70
2022-12-13T02:13:21.511Z,92.80
2022-12-13T02:15:54.285Z,92.80
2022-12-13T02:18:24.166Z,92.70
2022-12-13T02:21:03.094Z,92.50
2022-12-13T02:24:09.008Z,92.60
2022-12-13T02:26:44.281Z,92.50
2022-12-13T02:29:30.275Z,92.50
2022-12-13T02:32:02.006Z,92.30
2022-12-13T02:34:37.074Z,92.40
2022-12-13T02:37:03.883Z,92.40
2022-12-13T02:39:38.716Z,92.40
2022-12-13T02:42:06.635Z,92.30
2022-12-13T02:44:43.596Z,92.30
2022-12-13T02:47:21.941Z,92.40
2022-12-13T02:49:50.073Z,92.10
2022-12-13T02:52:22.371Z,92.10
2022-12-13T02:54:49.643Z,92.00
2022-12-13T02:57:30.093Z,92.00
2022-12-13T02:59:57.937Z,92.00
2022-12-13T03:02:31.155Z,92.20
2022-12-13T03:05:17.640Z,92.00
2022-12-13T03:07:53.511Z,92.00
2022-12-13T03:10:26.240Z,91.70
2022-12-13T03:13:15.727Z,91.90
2022-12-13T03:15:44.027Z,91.80
2022-12-13T03:18:18.213Z,91.90
2022-12-13T03:20:48.666Z,91.90
2022-12-13T03:23:15.903Z,92.10
2022-12-13T03:25:42.852Z,92.10
2022-12-13T03:28:09.792Z,92.10
2022-12-13T03:30:36.597Z,92.00
2022-12-13T03:33:03.607Z,92.10
2022-12-13T03:35:34.122Z,92.10
2022-12-13T03:38:02.141Z,92.10
2022-12-13T03:40:29.158Z,92.20
2022-12-13T03:42:56.061Z,92.10
2022-12-13T03:45:22.844Z,92.10
2022-12-13T03:47:49.678Z,92.10
2022-12-13T03:50:26.930Z,92.00
2022-12-13T03:53:00.755Z,91.90
2022-12-13T03:55:27.692Z,91.90
2022-12-13T03:57:54.473Z,91.50
2022-12-13T04:00:21.404Z,91.60
2022-12-13T04:02:48.293Z,91.70
2022-12-13T04:05:15.808Z,91.50
2022-12-13T04:07:48.294Z,91.70
2022-12-13T04:10:26.441Z,91.50
2022-12-13T04:13:12.414Z,91.60
2022-12-13T04:15:39.268Z,91.60
2022-12-13T04:18:06.091Z,91.50
2022-12-13T04:20:32.976Z,91.50
2022-12-13T04:22:59.870Z,91.50
2022-12-13T04:25:27.149Z,91.50
2022-12-13T04:27:53.925Z,91.50
2022-12-13T04:30:20.798Z,91.50
2022-12-13T04:32:47.637Z,91.50
2022-12-13T04:35:14.887Z,91.50
2022-12-13T04:37:43.526Z,91.50
2022-12-13T04:40:10.934Z,91.50
2022-12-13T04:42:37.858Z,91.40
2022-12-13T04:45:04.917Z,91.50
2022-12-13T04:47:31.727Z,91.50
2022-12-13T04:49:58.570Z,91.40
2022-12-13T04:52:25.411Z,91.30
2022-12-13T04:54:55.618Z,91.40
2022-12-13T04:57:23.059Z,91.40
2022-12-13T04:59:49.932Z,91.50
2022-12-13T05:05:29.440Z,91.50
2022-12-13T05:07:56.292Z,91.50
2022-12-13T05:10:33.553Z,91.50
2022-12-13T05:13:04.420Z,91.50
2022-12-13T05:15:31.319Z,91.00
2022-12-13T05:18:09.596Z,91.50
2022-12-13T05:20:38.338Z,91.50
2022-12-13T05:23:05.157Z,91.40
2022-12-13T05:25:32.508Z,91.30
2022-12-13T05:27:59.366Z,91.40
2022-12-13T05:30:26.229Z,90.90
2022-12-13T05:32:53.061Z,91.10
2022-12-13T05:35:23.095Z,90.90
2022-12-13T05:37:55.127Z,90.60
2022-12-13T05:40:23.025Z,90.50
2022-12-13T05:42:49.861Z,90.50
2022-12-13T05:45:17.942Z,90.50
2022-12-13T05:47:45.142Z,90.60
2022-12-13T05:50:12.248Z,90.50
2022-12-13T05:52:39.121Z,90.40
2022-12-13T05:55:06.121Z,90.30
2022-12-13T05:57:34.208Z,90.40
2022-12-13T06:00:01.110Z,90.40
2022-12-13T06:02:28.462Z,90.50
2022-12-13T06:04:55.468Z,90.40
2022-12-13T06:07:22.315Z,90.30
2022-12-13T06:09:49.117Z,90.40
2022-12-13T06:12:31.887Z,90.40
2022-12-13T06:15:01.337Z,90.40
2022-12-13T06:17:47.197Z,90.30
2022-12-13T06:20:23.473Z,90.50
2022-12-13T06:22:54.662Z,90.40
2022-12-13T06:25:30.709Z,90.40
2022-12-13T06:28:00.777Z,90.50
2022-12-13T06:30:28.724Z,90.50
2022-12-13T06:32:55.638Z,90.60
2022-12-13T06:35:28.768Z,90.60
2022-12-13T06:38:01.148Z,90.70
2022-12-13T06:40:31.909Z,90.50
2022-12-13T06:42:58.747Z,90.50
2022-12-13T06:45:25.721Z,90.60
2022-12-13T06:47:52.597Z,90.50
2022-12-13T06:50:19.410Z,90.40
2022-12-13T06:52:46.441Z,90.50
2022-12-13T06:55:13.698Z,90.40
2022-12-13T06:57:41.177Z,90.50
2022-12-13T07:00:09.020Z,90.50
2022-12-13T07:02:36.112Z,90.70
2022-12-13T07:05:03.047Z,90.80
2022-12-13T07:07:30.074Z,90.90
2022-12-13T07:09:56.898Z,90.80
2022-12-13T07:12:23.916Z,90.80
2022-12-13T07:14:52.348Z,90.90
2022-12-13T07:17:33.950Z,90.90
2022-12-13T07:20:08.521Z,91.10
2022-12-13T07:22:38.850Z,91.00
2022-12-13T07:25:08.619Z,91.00
2022-12-13T07:28:05.137Z,91.40
2022-12-13T07:30:40.927Z,91.10
2022-12-13T07:33:08.807Z,91.20
2022-12-13T07:35:36.914Z,91.20
2022-12-13T07:38:05.949Z,91.50
2022-12-13T07:40:36.032Z,91.40
2022-12-13T07:43:03.332Z,91.50
2022-12-13T07:45:30.138Z,91.50
2022-12-13T07:47:57.002Z,91.50
2022-12-13T07:50:25.655Z,91.50
2022-12-13T07:52:52.850Z,91.50
2022-12-13T07:55:23.443Z,91.30
2022-12-13T07:58:06.513Z,91.20
2022-12-13T08:00:35.168Z,91.10
2022-12-13T08:03:02.311Z,90.70
2022-12-13T08:05:29.451Z,90.60
2022-12-13T08:08:07.289Z,90.30
2022-12-13T08:10:34.198Z,90.20
2022-12-13T08:16:26.084Z,90.00
2022-12-13T08:19:02.696Z,89.50
2022-12-13T08:21:55.747Z,89.90
2022-12-13T08:24:24.000Z,90.00
2022-12-13T08:26:50.825Z,89.80
2022-12-13T08:29:23.258Z,89.80
2022-12-13T08:32:01.731Z,90.10
2022-12-13T08:34:28.764Z,90.20
2022-12-13T08:37:01.625Z,90.30
2022-12-13T08:39:34.760Z,90.30
2022-12-13T08:42:16.880Z,90.30
2022-12-13T08:44:45.914Z,90.10
2022-12-13T08:47:24.432Z,90.20
2022-12-13T08:50:02.154Z,90.30
2022-12-13T08:52:30.544Z,90.30
2022-12-13T08:54:57.354Z,90.10
2022-12-13T08:57:24.198Z,89.80
2022-12-13T08:59:51.036Z,89.60
2022-12-13T09:02:18.087Z,89.40
2022-12-13T09:04:45.021Z,89.50
2022-12-13T09:07:12.014Z,90.00
2022-12-13T09:09:38.938Z,89.40
2022-12-13T09:12:10.241Z,89.50
2022-12-13T09:14:38.416Z,89.20
2022-12-13T09:20:28.681Z,89.30
2022-12-13T09:23:01.794Z,89.10
2022-12-13T09:25:36.602Z,89.60
2022-12-13T09:28:08.231Z,88.10
2022-12-13T09:30:36.003Z,88.40
2022-12-13T09:33:17.639Z,88.80
2022-12-13T09:35:49.819Z,87.90
2022-12-13T09:38:16.680Z,87.80
2022-12-13T09:40:43.811Z,87.80
2022-12-13T09:43:21.688Z,87.70
2022-12-13T09:45:50.665Z,88.40
2022-12-13T09:48:22.319Z,88.30
2022-12-13T09:50:58.393Z,87.60
2022-12-13T09:53:37.542Z,87.10
2022-12-13T09:56:11.009Z,87.00
2022-12-13T09:58:38.363Z,87.30
2022-12-13T10:01:05.320Z,86.40
2022-12-13T10:03:32.323Z,85.70
2022-12-13T10:06:15.257Z,84.60
2022-12-13T10:08:57.281Z,84.90
2022-12-13T10:11:32.150Z,85.20
2022-12-13T10:14:18.599Z,85.60
2022-12-13T10:16:52.081Z,82.50
2022-12-13T10:19:29.022Z,83.80
2022-12-13T10:22:01.543Z,80.00
2022-12-13T10:24:37.322Z,82.50
2022-12-13T10:27:10.663Z,82.60
2022-12-13T10:29:56.621Z,81.70
2022-12-13T10:32:23.488Z,78.90
2022-12-13T10:34:50.334Z,78.60
2022-12-13T10:37:35.437Z,81.00
2022-12-13T10:40:02.315Z,79.90
2022-12-13T10:42:33.806Z,78.60
2022-12-13T10:45:09.070Z,77.90
2022-12-13T10:47:36.555Z,77.90
2022-12-13T10:50:03.568Z,78.70
2022-12-13T10:52:31.556Z,79.40
2022-12-13T10:55:01.120Z,78.60
2022-12-13T10:57:28.396Z,78.90
2022-12-13T10:59:55.355Z,77.90
2022-12-13T11:02:25.198Z,78.20
2022-12-13T11:04:52.098Z,78.10
2022-12-13T11:07:29.412Z,77.90
2022-12-13T11:09:57.049Z,77.70
2022-12-13T11:12:32.011Z,75.70
2022-12-13T11:15:03.390Z,75.90
2022-12-13T11:17:30.759Z,76.60
2022-12-13T11:20:04.850Z,76.80
2022-12-13T11:22:35.552Z,77.20
2022-12-13T11:25:06.675Z,75.90
2022-12-13T11:27:39.684Z,76.90
2022-12-13T11:30:17.997Z,75.90
2022-12-13T11:33:04.274Z,75.90
2022-12-13T11:35:36.981Z,77.20
2022-12-13T11:38:06.610Z,76.40
2022-12-13T11:40:33.592Z,77.00
2022-12-13T11:43:29.879Z,76.10
2022-12-13T11:45:57.530Z,73.70
2022-12-13T11:48:42.849Z,76.80
2022-12-13T11:51:09.806Z,76.10
2022-12-13T11:53:42.283Z,75.60
2022-12-13T11:56:16.652Z,74.90
2022-12-13T11:59:01.932Z,76.20
2022-12-13T12:01:43.176Z,74.40
2022-12-13T12:04:12.980Z,75.00
2022-12-13T12:06:42.689Z,76.10
2022-12-13T12:09:14.179Z,75.00
2022-12-13T12:12:00.247Z,73.60
2022-12-13T12:14:39.143Z,74.50
2022-12-13T12:17:07.202Z,74.30
2022-12-13T12:19:37.876Z,73.90
2022-12-13T12:22:14.146Z,73.10
2022-12-13T12:24:53.765Z,75.60
2022-12-13T12:27:40.469Z,75.60
2022-12-13T12:30:11.515Z,75.30
2022-12-13T12:32:41.550Z,76.20
2022-12-13T12:35:17.472Z,75.40
2022-12-13T12:37:54.572Z,75.20
2022-12-13T12:40:21.451Z,76.10
2022-12-13T12:43:14.225Z,75.30
2022-12-13T12:45:55.722Z,76.10
2022-12-13T12:49:00.700Z,76.00
2022-12-13T12:51:34.502Z,76.20
2022-12-13T12:57:11.248Z,76.10
2022-12-13T12:59:44.052Z,75.40
2022-12-13T13:02:25.461Z,73.60
2022-12-13T13:04:54.538Z,74.70
2022-12-13T13:07:24.026Z,75.60
2022-12-13T13:13:12.468Z,74.60
2022-12-13T13:15:40.171Z,74.90
2022-12-13T13:18:27.761Z,73.90
2022-12-13T13:21:13.710Z,75.40
2022-12-13T13:23:41.296Z,73.50
2022-12-13T13:26:26.058Z,75.50
2022-12-13T13:28:55.024Z,76.20
2022-12-13T13:31:21.876Z,75.00
2022-12-13T13:33:49.253Z,75.00
2022-12-13T13:36:37.773Z,74.50
2022-12-13T13:39:04.635Z,75.00
2022-12-13T13:42:01.039Z,73.90
2022-12-13T13:44:56.878Z,75.70
2022-12-13T13:47:23.898Z,76.10
2022-12-13T13:49:57.149Z,76.20
2022-12-13T13:52:45.175Z,76.10
2022-12-13T13:55:31.266Z,76.10
2022-12-13T13:58:09.641Z,76.10
2022-12-13T14:00:37.243Z,76.10
2022-12-13T14:03:21.828Z,77.20
2022-12-13T14:06:26.687Z,77.10
2022-12-13T14:08:56.375Z,76.10
2022-12-13T14:11:41.763Z,76.90
2022-12-13T14:14:21.889Z,77.30
2022-12-13T14:16:49.585Z,77.80
2022-12-13T14:19:27.139Z,77.70
2022-12-13T14:22:00.017Z,78.30
2022-12-13T14:24:32.802Z,77.90
2022-12-13T14:27:03.510Z,79.10
2022-12-13T14:29:34.721Z,78.20
2022-12-13T14:32:01.628Z,79.20
2022-12-13T14:34:30.816Z,79.30
2022-12-13T14:37:01.354Z,78.60
2022-12-13T14:39:31.642Z,79.20
2022-12-13T14:41:59.131Z,79.60
2022-12-13T14:44:29.829Z,79.40
2022-12-13T14:46:59.800Z,79.00
2022-12-13T14:49:27.670Z,79.30
2022-12-13T14:52:01.191Z,79.80
2022-12-13T14:54:30.383Z,79.40
2022-12-13T14:56:58.471Z,78.80
2022-12-13T14:59:25.456Z,79.50
2022-12-13T15:01:56.464Z,78.50
2022-12-13T15:04:26.871Z,78.30
2022-12-13T15:06:58.265Z,78.50
2022-12-13T15:09:25.107Z,79.80
2022-12-13T15:11:59.804Z,79.60
2022-12-13T15:14:29.822Z,79.50
2022-12-13T15:16:56.995Z,79.90
2022-12-13T15:19:39.039Z,80.40
2022-12-13T15:22:18.648Z,80.00
2022-12-13T15:24:49.341Z,81.40
2022-12-13T15:27:26.368Z,80.40
2022-12-13T15:29:54.400Z,80.70
2022-12-13T15:32:23.404Z,82.60
2022-12-13T15:34:51.406Z,81.60
2022-12-13T15:37:29.429Z,81.50
2022-12-13T15:40:00.894Z,82.60
2022-12-13T15:42:32.831Z,82.60
2022-12-13T15:45:00.937Z,82.90
2022-12-13T15:47:29.082Z,83.70
2022-12-13T15:49:59.976Z,82.80
2022-12-13T15:52:32.153Z,82.80
2022-12-13T15:55:19.324Z,84.00
2022-12-13T15:57:50.839Z,84.90
2022-12-13T16:00:17.740Z,85.90
2022-12-13T16:02:48.577Z,86.00
2022-12-13T16:05:20.740Z,86.40
2022-12-13T16:07:49.714Z,86.90
2022-12-13T16:10:17.981Z,87.40
2022-12-13T16:12:58.896Z,86.70
2022-12-13T16:15:31.138Z,86.90
2022-12-13T16:18:16.441Z,86.80
2022-12-13T16:20:44.269Z,87.30
2022-12-13T16:23:12.175Z,87.20
2022-12-13T16:25:55.363Z,88.00
2022-12-13T16:28:26.187Z,88.00
2022-12-13T16:30:53.334Z,88.50
2022-12-13T16:33:26.577Z,88.80
2022-12-13T16:35:55.031Z,88.70
2022-12-13T16:38:26.423Z,88.60
2022-12-13T16:40:54.847Z,89.10
2022-12-13T16:43:26.529Z,89.10
2022-12-13T16:45:56.688Z,89.50
2022-12-13T16:48:24.000Z,90.00
2022-12-13T16:50:57.922Z,89.50
2022-12-13T16:53:25.514Z,90.00
2022-12-13T16:55:58.470Z,90.10
2022-12-13T16:58:26.496Z,90.10
2022-12-13T17:00:58.481Z,90.10
2022-12-13T17:03:26.760Z,90.10
2022-12-13T17:05:58.721Z,90.20
2022-12-13T17:08:25.856Z,90.20
2022-12-13T17:10:57.781Z,90.30
2022-12-13T17:13:25.841Z,90.40
2022-12-13T17:15:59.457Z,90.40
2022-12-13T17:18:27.204Z,90.50
2022-12-13T17:20:58.512Z,90.60
2022-12-13T17:23:27.549Z,90.30
2022-12-13T17:25:58.764Z,90.40
2022-12-13T17:28:25.788Z,90.40
2022-12-13T17:30:55.003Z,90.50
2022-12-13T17:33:22.450Z,90.40
2022-12-13T17:35:49.508Z,90.60
2022-12-13T17:38:16.331Z,90.40
2022-12-13T17:40:43.140Z,90.50
2022-12-13T17:43:30.077Z,90.50
2022-12-13T17:46:04.349Z,90.30
2022-12-13T17:48:39.237Z,90.30
2022-12-13T17:51:08.411Z,90.40
2022-12-13T17:53:36.110Z,90.50
2022-12-13T17:56:04.167Z,90.40
2022-12-13T17:58:32.335Z,90.30
2022-12-13T18:00:59.512Z,90.00
2022-12-13T18:03:26.891Z,90.20
2022-12-13T18:05:57.820Z,90.30
2022-12-13T18:08:24.918Z,90.30
2022-12-13T18:11:30.752Z,90.20
2022-12-13T18:13:45.170Z,90.30
2022-12-13T18:16:13.019Z,90.40
2022-12-13T18:18:39.968Z,90.30
2022-12-13T18:21:15.111Z,90.20
2022-12-13T18:23:41.994Z,90.20
2022-12-13T18:26:09.781Z,90.10
2022-12-13T18:28:36.716Z,90.30
2022-12-13T18:31:12.185Z,90.40
2022-12-13T18:33:42.161Z,90.60
2022-12-13T18:36:13.027Z,90.50
2022-12-13T18:38:40.049Z,90.50
2022-12-13T18:41:07.468Z,90.50
2022-12-13T18:43:34.401Z,90.50
2022-12-13T18:46:01.878Z,90.60
2022-12-13T18:48:29.272Z,90.60
2022-12-13T18:50:58.305Z,90.60
2022-12-13T18:53:25.392Z,90.50
2022-12-13T18:55:52.535Z,90.70
2022-12-13T18:58:19.384Z,90.70
2022-12-13T19:00:46.276Z,90.70
2022-12-13T19:03:13.140Z,90.80
2022-12-13T19:05:40.036Z,91.00
2022-12-13T19:08:06.857Z,91.10
2022-12-13T19:10:34.238Z,91.20
2022-12-13T19:13:01.128Z,91.50
2022-12-13T19:15:28.818Z,91.60
2022-12-13T19:17:55.796Z,91.50
2022-12-13T19:20:22.764Z,91.40
2022-12-13T19:22:49.627Z,91.40
2022-12-13T19:25:17.699Z,91.60
2022-12-13T19:27:47.205Z,91.70
2022-12-13T19:30:15.165Z,91.60
2022-12-13T19:32:42.594Z,91.70
2022-12-13T19:35:15.206Z,91.60
2022-12-13T19:37:42.015Z,91.70
2022-12-13T19:40:09.970Z,91.80
2022-12-13T19:42:36.797Z,91.50
2022-12-13T19:45:03.912Z,91.50
2022-12-13T19:47:30.823Z,91.50
2022-12-13T19:49:57.782Z,91.40
2022-12-13T19:52:24.616Z,91.50
2022-12-13T19:54:51.412Z,91.40
2022-12-13T19:57:18.360Z,91.40
2022-12-13T19:59:45.284Z,91.50
2022-12-13T20:02:12.841Z,91.40
2022-12-13T20:04:39.866Z,91.40
2022-12-13T20:10:11.196Z,91.60
2022-12-13T20:12:40.890Z,91.60
2022-12-13T20:15:08.427Z,91.60
2022-12-13T20:17:35.405Z,91.60
2022-12-13T20:20:02.743Z,91.70
2022-12-13T20:22:29.748Z,91.50
2022-12-13T20:24:56.571Z,91.60
2022-12-13T20:27:23.587Z,91.70
2022-12-13T20:29:50.625Z,91.60
2022-12-13T20:32:17.601Z,91.70
2022-12-13T20:34:44.516Z,91.50
2022-12-13T20:37:11.362Z,91.40
2022-12-13T20:39:38.756Z,91.60
2022-12-13T20:42:05.638Z,91.60
2022-12-13T20:44:32.849Z,91.80
2022-12-13T20:46:59.716Z,91.80
2022-12-13T20:49:26.636Z,91.80
2022-12-13T20:51:53.536Z,91.80
2022-12-13T20:54:20.402Z,91.80
2022-12-13T20:56:47.293Z,91.80
2022-12-13T20:59:14.162Z,91.80
2022-12-13T21:01:41.297Z,91.80
2022-12-13T21:04:08.551Z,91.80
2022-12-13T21:06:36.310Z,91.80
2022-12-13T21:09:03.674Z,91.80
2022-12-13T21:11:33.363Z,91.80
2022-12-13T21:14:06.818Z,92.10
2022-12-13T21:16:39.098Z,91.90
2022-12-13T21:19:06.613Z,91.80
2022-12-13T21:21:33.473Z,91.70
2022-12-13T21:24:00.718Z,91.80
2022-12-13T21:26:33.085Z,91.80
2022-12-13T21:29:02.365Z,91.80
2022-12-13T21:31:29.286Z,91.90
2022-12-13T21:34:00.236Z,91.90
2022-12-13T21:36:27.970Z,91.90
2022-12-13T21:38:55.160Z,91.80
2022-12-13T21:41:22.039Z,91.60
2022-12-13T21:43:48.872Z,91.60
2022-12-13T21:46:16.492Z,91.70
2022-12-13T21:48:43.578Z,91.90
2022-12-13T21:51:11.319Z,91.70
2022-12-13T21:53:38.157Z,91.80
2022-12-13T21:56:24.275Z,91.90
2022-12-13T21:59:09.841Z,91.90
2022-12-13T22:01:55.714Z,91.90
2022-12-13T22:04:22.667Z,91.80
2022-12-13T22:06:49.500Z,91.70
2022-12-13T22:09:16.420Z,91.70
2022-12-13T22:11:44.183Z,91.60
2022-12-13T22:14:11.037Z,91.70
2022-12-13T22:16:37.888Z,91.70
2022-12-13T22:19:05.107Z,91.60
2022-12-13T22:21:32.230Z,91.60
2022-12-13T22:23:59.440Z,91.70
2022-12-13T22:26:26.296Z,91.50
2022-12-13T22:28:53.146Z,91.90
2022-12-13T22:31:20.035Z,91.90
2022-12-13T22:33:47.330Z,91.70
2022-12-13T22:36:14.189Z,91.80
2022-12-13T22:38:41.034Z,91.70
2022-12-13T22:41:10.947Z,91.70
2022-12-13T22:43:37.809Z,91.80
2022-12-13T22:46:05.423Z,91.70
2022-12-13T22:48:32.355Z,91.70
2022-12-13T22:51:02.750Z,91.60
2022-12-13T22:53:29.840Z,91.50
2022-12-13T22:56:06.567Z,91.60
2022-12-13T22:58:33.461Z,91.70
2022-12-13T23:01:19.467Z,91.70
2022-12-13T23:03:46.548Z,91.70
2022-12-13T23:06:14.159Z,91.80
2022-12-13T23:08:43.539Z,91.90
2022-12-13T23:11:29.366Z,91.90
2022-12-13T23:13:56.753Z,91.90
2022-12-13T23:16:24.049Z,91.90
2022-12-13T23:18:57.590Z,91.90
2022-12-13T23:21:37.771Z,91.90
2022-12-13T23:24:04.699Z,91.90
2022-12-13T23:26:31.900Z,91.90
2022-12-13T23:29:02.952Z,91.80
2022-12-13T23:31:30.071Z,91.90
2022-12-13T23:33:56.904Z,91.70
2022-12-13T23:36:24.243Z,91.90
2022-12-13T23:38:51.156Z,91.90
2022-12-13T23:41:23.279Z,91.80
2022-12-13T23:43:50.551Z,91.80
2022-12-13T23:46:19.175Z,91.80
2022-12-13T23:48:46.098Z,91.70
2022-12-13T23:51:13.195Z,91.70
2022-12-13T23:53:40.040Z,91.70
2022-12-13T23:56:07.766Z,91.80
2022-12-13T23:58:35.001Z,91.60
